Terminal Aerodrome Forecast
Issued by NWS

Home | Current Version | Previous Version | Text Only | Print | Product List | Glossary On
Versions: 1 2 3 4 5 6 7 8 9 10 11 12 13 14 15 16 17 18 19 20 21 22 23 24 25 26 27 28 29 30 31 32
000
FTUS43 KDMX 291944 AAA
TAFMCW
TAF AMD
KMCW 291944Z 2920/3018 23011KT P6SM VCTS SCT015 BKN023CB OVC035
      TEMPO 2920/2924 5SM -TSRA BKN015CB
     FM300000 30012KT 6SM -SHRA BR BKN016 OVC028
     FM300400 34016G22KT P6SM VCSH BKN011 OVC018
     FM300900 35018G23KT P6SM BKN015
     FM301500 01015G21KT P6SM SCT015 BKN030=

USA.gov is the U.S. government's official web portal to all federal, state and local government web resources and services.